createdAt,value
2019-03-05T00:00:13.520Z,66.77
2019-03-05T00:00:54.117Z,66.67
2019-03-05T00:01:34.685Z,66.77
2019-03-05T00:02:15.249Z,66.3
2019-03-05T00:02:55.818Z,66.77
2019-03-05T00:03:36.371Z,66.96
2019-03-05T00:04:16.931Z,66.87
2019-03-05T00:04:57.497Z,66.77
2019-03-05T00:05:38.088Z,66.87
2019-03-05T00:06:18.654Z,66.77
2019-03-05T00:06:59.251Z,66.77
2019-03-05T00:07:39.827Z,66.49
2019-03-05T00:08:20.451Z,66.39
2019-03-05T00:09:00.986Z,66.49
2019-03-05T00:09:41.545Z,66.67
2019-03-05T00:10:22.121Z,66.77
2019-03-05T00:11:02.757Z,66.67
2019-03-05T00:11:43.342Z,67.15
2019-03-05T00:12:23.883Z,67.15
2019-03-05T00:13:04.460Z,67.15
2019-03-05T00:13:45.016Z,66.87
2019-03-05T00:14:25.594Z,66.87
2019-03-05T00:15:06.137Z,66.87
2019-03-05T00:15:46.730Z,66.87
2019-03-05T00:16:27.288Z,67.25
2019-03-05T00:17:07.908Z,67.34
2019-03-05T00:17:48.460Z,66.77
2019-03-05T00:18:29.020Z,66.77
2019-03-05T00:19:09.601Z,66.49
2019-03-05T00:19:50.168Z,66.58
2019-03-05T00:20:30.754Z,66.39
2019-03-05T00:21:11.310Z,66.49
2019-03-05T00:21:51.876Z,66.77
2019-03-05T00:22:32.458Z,66.87
2019-03-05T00:23:13.029Z,66.77
2019-03-05T00:23:53.581Z,66.49
2019-03-05T00:24:34.160Z,66.3
2019-03-05T00:25:14.776Z,66.11
2019-03-05T00:25:55.269Z,66.67
2019-03-05T00:26:35.834Z,66.58
2019-03-05T00:27:16.422Z,66.58
2019-03-05T00:27:56.989Z,66.39
2019-03-05T00:28:37.576Z,66.67
2019-03-05T00:29:18.148Z,66.11
2019-03-05T00:29:58.764Z,66.11
2019-03-05T00:30:39.319Z,66.11
2019-03-05T00:31:19.886Z,66.39
2019-03-05T00:32:00.461Z,65.92
2019-03-05T00:32:41.031Z,66.01
2019-03-05T00:33:21.596Z,66.01
2019-03-05T00:34:02.151Z,66.3
2019-03-05T00:34:42.724Z,66.39
2019-03-05T00:35:23.280Z,66.42
2019-03-05T00:36:03.832Z,66.01
2019-03-05T00:36:44.405Z,66.2
2019-03-05T00:37:24.964Z,66.14
2019-03-05T00:38:05.518Z,66.14
2019-03-05T00:38:46.088Z,66.14
2019-03-05T00:39:26.678Z,66.58
2019-03-05T00:40:07.237Z,66.71
2019-03-05T00:40:47.808Z,66.71
2019-03-05T00:41:28.362Z,66.8
2019-03-05T00:42:08.927Z,67
2019-03-05T00:42:49.543Z,66.52
2019-03-05T00:43:30.029Z,66.33
2019-03-05T00:44:10.590Z,66.61
2019-03-05T00:44:51.188Z,66.71
2019-03-05T00:45:31.742Z,66.42
2019-03-05T00:46:12.320Z,66.05
2019-03-05T00:46:52.867Z,66.05
2019-03-05T00:47:33.454Z,66.42
2019-03-05T00:48:14.014Z,66.24
2019-03-05T00:48:54.603Z,66.24
2019-03-05T00:49:35.186Z,65.67
2019-03-05T00:50:15.775Z,66.05
2019-03-05T00:50:56.322Z,66.05
2019-03-05T00:51:36.906Z,66.24
2019-03-05T00:52:17.474Z,66.14
2019-03-05T00:52:58.025Z,66.24
2019-03-05T00:53:38.593Z,66.14
2019-03-05T00:54:19.169Z,66.14
2019-03-05T00:54:59.726Z,66.05
2019-03-05T00:55:40.314Z,66.05
2019-03-05T00:56:20.945Z,66.24
2019-03-05T00:57:01.629Z,66.05
2019-03-05T00:57:42.186Z,65.95
2019-03-05T00:58:22.755Z,66.24
2019-03-05T00:59:03.322Z,66.14
2019-03-05T00:59:43.894Z,66.24
2019-03-05T01:00:24.471Z,66.24
2019-03-05T01:01:05.079Z,65.95
2019-03-05T01:01:46.620Z,65.57
2019-03-05T01:02:26.181Z,65.57
2019-03-05T01:03:06.748Z,65.76
2019-03-05T01:03:47.336Z,65.86
2019-03-05T01:04:27.892Z,65.67
2019-03-05T01:05:08.467Z,65.76
2019-03-05T01:05:49.058Z,65.86
2019-03-05T01:06:29.607Z,65.76
2019-03-05T01:07:10.160Z,65.38
2019-03-05T01:07:50.707Z,65.76
2019-03-05T01:08:31.264Z,65.76
2019-03-05T01:09:11.821Z,65.76
2019-03-05T01:09:52.380Z,65.95
2019-03-05T01:10:32.967Z,66.33
2019-03-05T01:11:13.542Z,66.05
2019-03-05T01:11:54.145Z,65.76
2019-03-05T01:12:34.710Z,65.95
2019-03-05T01:13:15.282Z,65.67
2019-03-05T01:13:55.839Z,65.67
2019-03-05T01:14:36.410Z,65.95
2019-03-05T01:15:16.957Z,65.67
2019-03-05T01:15:57.522Z,65.76
2019-03-05T01:16:38.143Z,65.86
2019-03-05T01:17:19.587Z,65.95
2019-03-05T01:18:00.160Z,65.67
2019-03-05T01:18:40.727Z,65.57
2019-03-05T01:19:21.305Z,66.05
2019-03-05T01:20:01.848Z,65.86
2019-03-05T01:20:42.411Z,65.95
2019-03-05T01:21:22.988Z,65.95
2019-03-05T01:22:03.590Z,65.86
2019-03-05T01:22:44.183Z,65.28
2019-03-05T01:23:24.765Z,65.57
2019-03-05T01:24:05.320Z,65.38
2019-03-05T01:24:45.875Z,65.47
2019-03-05T01:25:26.472Z,65.28
2019-03-05T01:26:07.017Z,65.47
2019-03-05T01:26:47.594Z,65.38
2019-03-05T01:27:28.175Z,65.38
2019-03-05T01:28:08.766Z,65.28
2019-03-05T01:28:49.322Z,65.19
2019-03-05T01:29:29.894Z,65.57
2019-03-05T01:30:10.431Z,65.57
2019-03-05T01:30:50.971Z,65.47
2019-03-05T01:31:31.537Z,65.67
2019-03-05T01:32:12.063Z,65.67
2019-03-05T01:32:52.631Z,65.57
2019-03-05T01:33:33.189Z,65.86
2019-03-05T01:34:13.797Z,65.86
2019-03-05T01:34:54.341Z,65.57
2019-03-05T01:35:34.901Z,65.57
2019-03-05T01:36:15.483Z,65.57
2019-03-05T01:36:56.046Z,65.86
2019-03-05T01:37:36.600Z,65.76
2019-03-05T01:38:17.224Z,65.86
2019-03-05T01:38:57.791Z,65.95
2019-03-05T01:39:38.344Z,65.57
2019-03-05T01:40:18.898Z,65.47
2019-03-05T01:40:59.457Z,65.95
2019-03-05T01:41:40.032Z,65.76
2019-03-05T01:42:20.609Z,65.57
2019-03-05T01:43:01.168Z,65.57
2019-03-05T01:43:41.741Z,65.67
2019-03-05T01:44:22.312Z,65.92
2019-03-05T01:45:02.903Z,66.05
2019-03-05T01:45:43.453Z,65.47
2019-03-05T01:46:24.022Z,66.05
2019-03-05T01:47:04.589Z,66.05
2019-03-05T01:47:45.136Z,66.01
2019-03-05T01:48:25.706Z,66.01
2019-03-05T01:49:06.269Z,66.01
2019-03-05T01:49:46.823Z,66.01
2019-03-05T01:50:27.379Z,66.2
2019-03-05T01:51:07.932Z,66.01
2019-03-05T01:51:48.498Z,66.01
2019-03-05T01:52:29.059Z,66.11
2019-03-05T01:53:09.652Z,66.01
2019-03-05T01:53:50.196Z,66.11
2019-03-05T01:54:30.779Z,66.11
2019-03-05T01:55:11.339Z,65.92
2019-03-05T01:55:51.913Z,66.11
2019-03-05T01:56:32.506Z,66.3
2019-03-05T01:57:13.056Z,66.39
2019-03-05T01:57:53.623Z,66.2
2019-03-05T01:58:34.211Z,66.01
2019-03-05T01:59:14.835Z,66.39
2019-03-05T01:59:55.397Z,66.11
2019-03-05T02:00:35.954Z,66.2
2019-03-05T02:01:16.536Z,66.2
2019-03-05T02:01:57.112Z,66.77
2019-03-05T02:02:37.697Z,66.49
2019-03-05T02:03:18.241Z,66.49
2019-03-05T02:03:58.812Z,66.96
2019-03-05T02:04:39.383Z,66.67
2019-03-05T02:05:20.387Z,66.77
2019-03-05T02:06:00.966Z,66.77
2019-03-05T02:06:41.523Z,67.06
2019-03-05T02:07:22.126Z,67.15
2019-03-05T02:08:02.690Z,67.34
2019-03-05T02:08:43.254Z,67.15
2019-03-05T02:09:23.820Z,67.15
2019-03-05T02:10:04.403Z,66.96
2019-03-05T02:10:44.969Z,67.06
2019-03-05T02:11:25.535Z,66.96
2019-03-05T02:12:06.097Z,67.53
2019-03-05T02:12:46.665Z,67.72
2019-03-05T02:13:27.241Z,67.72
2019-03-05T02:14:07.811Z,67.63
2019-03-05T02:14:48.388Z,68.1
2019-03-05T02:15:28.938Z,67.82
2019-03-05T02:16:09.503Z,68.39
2019-03-05T02:16:50.061Z,68.67
2019-03-05T02:17:30.616Z,68.58
2019-03-05T02:18:11.163Z,68.48
2019-03-05T02:18:51.730Z,68.58
2019-03-05T02:19:32.312Z,69.05
2019-03-05T02:20:12.872Z,68.96
2019-03-05T02:20:53.449Z,68.77
2019-03-05T02:21:34.031Z,69.24
2019-03-05T02:22:14.621Z,68.96
2019-03-05T02:22:55.193Z,68.67
2019-03-05T02:23:35.755Z,68.67
2019-03-05T02:24:16.333Z,68.96
2019-03-05T02:24:56.886Z,69.15
2019-03-05T02:25:37.463Z,69.43
2019-03-05T02:26:18.082Z,69.05
2019-03-05T02:26:58.675Z,69.24
2019-03-05T02:27:39.230Z,69.43
2019-03-05T02:28:19.795Z,69.62
2019-03-05T02:29:00.361Z,69.43
2019-03-05T02:29:40.941Z,69.71
2019-03-05T02:30:21.497Z,69.34
2019-03-05T02:31:02.130Z,69.21
2019-03-05T02:31:42.643Z,69.24
2019-03-05T02:32:23.210Z,69.87
2019-03-05T02:33:03.763Z,69.71
2019-03-05T02:33:44.349Z,69.81
2019-03-05T02:34:24.917Z,69.81
2019-03-05T02:35:05.496Z,69.91
2019-03-05T02:35:46.043Z,70.1
2019-03-05T02:36:26.613Z,70.15
2019-03-05T02:37:07.178Z,70.57
2019-03-05T02:37:47.729Z,70.54
2019-03-05T02:38:28.318Z,70.44
2019-03-05T02:39:08.893Z,70.82
2019-03-05T02:39:49.604Z,70.63
2019-03-05T02:40:30.034Z,70.54
2019-03-05T02:41:10.591Z,70.63
2019-03-05T02:41:51.165Z,70.82
2019-03-05T02:42:31.734Z,70.73
2019-03-05T02:43:12.294Z,71.2
2019-03-05T02:43:52.862Z,71.2
2019-03-05T02:44:33.439Z,71.2
2019-03-05T02:45:14.027Z,71.01
2019-03-05T02:45:54.581Z,71.3
2019-03-05T02:46:35.152Z,71.39
2019-03-05T02:47:15.720Z,71.58
2019-03-05T02:47:56.309Z,71.48
2019-03-05T02:48:36.876Z,71.67
2019-03-05T02:49:17.607Z,71.96
2019-03-05T02:49:58.095Z,71.67
2019-03-05T02:50:38.660Z,71.86
2019-03-05T02:51:19.278Z,71.67
2019-03-05T02:51:59.870Z,71.86
2019-03-05T02:52:40.453Z,71.67
2019-03-05T02:53:21.048Z,72.15
2019-03-05T02:54:01.638Z,71.96
2019-03-05T02:54:42.190Z,71.96
2019-03-05T02:55:22.791Z,71.96
2019-03-05T02:56:03.382Z,72.34
2019-03-05T02:56:43.949Z,72.25
2019-03-05T02:57:24.544Z,72.34
2019-03-05T02:58:05.158Z,72.34
2019-03-05T02:58:45.696Z,72.34
2019-03-05T02:59:26.253Z,72.25
2019-03-05T03:00:06.870Z,71.96
2019-03-05T03:00:47.412Z,72.63
2019-03-05T03:01:27.995Z,72.91
2019-03-05T03:02:08.550Z,73.1
2019-03-05T03:02:49.154Z,72.34
2019-03-05T03:03:29.695Z,72.91
2019-03-05T03:04:10.248Z,73.19
2019-03-05T03:04:50.930Z,73.19
2019-03-05T03:05:31.504Z,73.1
2019-03-05T03:06:12.085Z,73.29
2019-03-05T03:06:52.640Z,73.48
2019-03-05T03:07:33.194Z,73.29
2019-03-05T03:08:13.749Z,73.38
2019-03-05T03:08:54.302Z,73.57
2019-03-05T03:09:34.878Z,73.57
2019-03-05T03:10:15.463Z,73.29
2019-03-05T03:10:56.058Z,73.86
2019-03-05T03:11:36.629Z,73.38
2019-03-05T03:12:17.181Z,73.57
2019-03-05T03:12:57.736Z,73.38
2019-03-05T03:13:38.343Z,73.67
2019-03-05T03:14:18.939Z,73.57
2019-03-05T03:14:59.499Z,73.57
2019-03-05T03:15:40.085Z,73.57
2019-03-05T03:16:20.661Z,73.48
2019-03-05T03:17:01.253Z,73.76
2019-03-05T03:17:41.819Z,73.67
2019-03-05T03:18:22.415Z,73.57
2019-03-05T03:19:03.030Z,73.38
2019-03-05T03:19:43.642Z,73.38
2019-03-05T03:20:24.188Z,73.76
2019-03-05T03:21:04.755Z,73.67
2019-03-05T03:21:45.330Z,74.05
2019-03-05T03:22:25.958Z,73.86
2019-03-05T03:23:06.512Z,73.86
2019-03-05T03:23:47.070Z,73.48
2019-03-05T03:24:27.686Z,73.38
2019-03-05T03:25:08.245Z,73.57
2019-03-05T03:25:48.808Z,73.76
2019-03-05T03:26:29.350Z,73.57
2019-03-05T03:27:09.938Z,73.67
2019-03-05T03:27:50.508Z,73.57
2019-03-05T03:28:31.115Z,73.67
2019-03-05T03:29:11.648Z,73.38
2019-03-05T03:29:52.221Z,73.48
2019-03-05T03:30:32.772Z,73.29
2019-03-05T03:31:13.329Z,73.29
2019-03-05T03:31:53.927Z,73.38
2019-03-05T03:32:34.521Z,73.57
2019-03-05T03:33:15.081Z,73.57
2019-03-05T03:33:55.622Z,73.67
2019-03-05T03:34:36.193Z,73.29
2019-03-05T03:35:16.728Z,73.19
2019-03-05T03:35:57.308Z,73.57
2019-03-05T03:36:37.860Z,73.57
2019-03-05T03:37:18.442Z,73.29
2019-03-05T03:37:59.054Z,73.57
2019-03-05T03:38:39.616Z,73.71
2019-03-05T03:39:20.165Z,73.52
2019-03-05T03:40:00.746Z,73.57
2019-03-05T03:40:41.307Z,73.67
2019-03-05T03:41:21.889Z,73.38
2019-03-05T03:42:02.463Z,73.14
2019-03-05T03:42:43.041Z,73.38
2019-03-05T03:43:23.605Z,73.38
2019-03-05T03:44:04.160Z,73.04
2019-03-05T03:44:44.730Z,73.14
2019-03-05T03:45:25.318Z,73.14
2019-03-05T03:46:05.907Z,73.42
2019-03-05T03:46:46.471Z,73.61
2019-03-05T03:47:27.056Z,73.33
2019-03-05T03:48:07.623Z,73.04
2019-03-05T03:48:48.204Z,72.85
2019-03-05T03:49:28.789Z,72.85
2019-03-05T03:50:09.356Z,72.85
2019-03-05T03:50:49.950Z,72.85
2019-03-05T03:51:30.550Z,72.95
2019-03-05T03:52:11.132Z,72.56
2019-03-05T03:52:51.747Z,72.75
2019-03-05T03:53:32.347Z,72.85
2019-03-05T03:54:12.937Z,72.66
2019-03-05T03:54:53.508Z,72.47
2019-03-05T03:55:34.085Z,72.95
2019-03-05T03:56:14.651Z,72.66
2019-03-05T03:56:55.225Z,72.56
2019-03-05T03:57:35.803Z,72.38
2019-03-05T03:58:16.352Z,72.19
2019-03-05T03:58:56.911Z,72.28
2019-03-05T03:59:37.482Z,72.19
2019-03-05T04:00:18.054Z,72.38
2019-03-05T04:00:58.645Z,72.38
2019-03-05T04:01:39.204Z,72.28
2019-03-05T04:02:19.770Z,72.28
2019-03-05T04:03:00.340Z,72.47
2019-03-05T04:03:40.899Z,72.28
2019-03-05T04:04:21.451Z,72.56
2019-03-05T04:05:02.008Z,72.47
2019-03-05T04:05:42.550Z,72.66
2019-03-05T04:06:23.117Z,72.38
2019-03-05T04:07:03.688Z,72.38
2019-03-05T04:07:44.272Z,72.66
2019-03-05T04:08:24.854Z,72.47
2019-03-05T04:09:05.406Z,72.09
2019-03-05T04:09:45.981Z,72
2019-03-05T04:10:26.531Z,72.19
2019-03-05T04:11:07.085Z,72.38
2019-03-05T04:11:47.644Z,72.38
2019-03-05T04:12:28.289Z,72.56
2019-03-05T04:13:08.857Z,72.66
2019-03-05T04:13:49.414Z,72.66
2019-03-05T04:14:29.994Z,73.04
2019-03-05T04:15:10.557Z,72.66
2019-03-05T04:15:51.112Z,72.85
2019-03-05T04:16:31.699Z,72.95
2019-03-05T04:17:12.262Z,72.75
2019-03-05T04:17:52.873Z,73.33
2019-03-05T04:18:33.440Z,72.95
2019-03-05T04:19:13.976Z,73.14
2019-03-05T04:19:54.556Z,73.33
2019-03-05T04:20:35.130Z,73.14
2019-03-05T04:21:15.686Z,73.04
2019-03-05T04:21:56.252Z,73.33
2019-03-05T04:22:36.797Z,73.14
2019-03-05T04:23:17.343Z,73.14
2019-03-05T04:23:57.937Z,73.23
2019-03-05T04:24:38.517Z,72.95
2019-03-05T04:25:19.087Z,73.23
2019-03-05T04:25:59.685Z,73.14
2019-03-05T04:26:40.232Z,73.33
2019-03-05T04:27:20.807Z,73.23
2019-03-05T04:28:01.386Z,73.8
2019-03-05T04:28:41.998Z,73.8
2019-03-05T04:29:22.560Z,73.8
2019-03-05T04:30:03.139Z,73.99
2019-03-05T04:30:43.718Z,74.18
2019-03-05T04:31:24.250Z,73.9
2019-03-05T04:32:04.810Z,73.61
2019-03-05T04:32:45.362Z,73.71
2019-03-05T04:33:25.945Z,74.18
2019-03-05T04:34:06.554Z,74.37
2019-03-05T04:34:47.113Z,74.37
2019-03-05T04:35:27.669Z,74.27
2019-03-05T04:36:08.296Z,74.75
2019-03-05T04:36:48.863Z,74.66
2019-03-05T04:37:29.421Z,74.75
2019-03-05T04:38:09.966Z,74.47
2019-03-05T04:38:50.555Z,74.56
2019-03-05T04:39:31.109Z,74.94
2019-03-05T04:40:11.671Z,74.94
2019-03-05T04:40:52.255Z,74.94
2019-03-05T04:41:32.824Z,75.42
2019-03-05T04:42:13.373Z,75.04
2019-03-05T04:42:53.941Z,75.7
2019-03-05T04:43:34.517Z,75.42
2019-03-05T04:44:15.103Z,75.42
2019-03-05T04:44:55.698Z,75.99
2019-03-05T04:45:36.234Z,76.18
2019-03-05T04:46:16.817Z,75.99
2019-03-05T04:46:57.375Z,75.79
2019-03-05T04:47:37.940Z,76.08
2019-03-05T04:48:18.493Z,76.56
2019-03-05T04:48:59.051Z,76.27
2019-03-05T04:49:39.636Z,76.37
2019-03-05T04:50:20.197Z,76.18
2019-03-05T04:51:00.760Z,76.46
2019-03-05T04:51:41.313Z,76.46
2019-03-05T04:52:21.881Z,76.65
2019-03-05T04:53:02.461Z,76.65
2019-03-05T04:53:43.015Z,76.65
2019-03-05T04:54:23.590Z,76.65
2019-03-05T04:55:04.130Z,76.56
2019-03-05T04:55:44.764Z,76.75
2019-03-05T04:56:27.174Z,76.65
2019-03-05T04:57:05.903Z,76.65
2019-03-05T04:57:46.484Z,76.75
2019-03-05T04:58:27.050Z,76.56
2019-03-05T04:59:07.617Z,76.65
2019-03-05T04:59:48.206Z,76.56
2019-03-05T05:00:28.783Z,76.84
2019-03-05T05:01:09.306Z,77.03
2019-03-05T05:01:49.890Z,77.03
2019-03-05T05:02:30.453Z,76.46
2019-03-05T05:03:11.018Z,76.75
2019-03-05T05:03:51.598Z,76.75
2019-03-05T05:04:32.154Z,76.75
2019-03-05T05:05:12.737Z,76.75
2019-03-05T05:05:53.306Z,76.84
2019-03-05T05:06:33.930Z,76.84
2019-03-05T05:07:14.539Z,77.6
2019-03-05T05:07:55.088Z,77.22
2019-03-05T05:08:35.647Z,76.93
2019-03-05T05:09:16.215Z,77.12
2019-03-05T05:09:56.797Z,76.75
2019-03-05T05:10:37.417Z,77.22
2019-03-05T05:11:17.973Z,77.51
2019-03-05T05:11:58.560Z,77.12
2019-03-05T05:12:39.145Z,77.03
2019-03-05T05:13:19.711Z,77.22
2019-03-05T05:14:00.281Z,77.41
2019-03-05T05:14:40.873Z,77.22
2019-03-05T05:15:21.452Z,77.98
2019-03-05T05:16:02.026Z,77.41
2019-03-05T05:16:42.578Z,77.89
2019-03-05T05:17:23.152Z,77.7
2019-03-05T05:18:03.765Z,77.7
2019-03-05T05:18:44.332Z,77.03
2019-03-05T05:19:27.284Z,77.03
2019-03-05T05:20:05.432Z,77.22
2019-03-05T05:20:45.998Z,77.31
2019-03-05T05:21:26.578Z,77.31
2019-03-05T05:22:07.164Z,77.12
2019-03-05T05:22:47.735Z,77.22
2019-03-05T05:23:28.275Z,77.12
2019-03-05T05:24:08.851Z,77.03
2019-03-05T05:24:49.395Z,77.31
2019-03-05T05:25:30.003Z,77.12
2019-03-05T05:26:10.561Z,77.03
2019-03-05T05:26:51.121Z,77.22
2019-03-05T05:27:31.703Z,77.12
2019-03-05T05:28:12.250Z,77.31
2019-03-05T05:28:52.841Z,76.93
2019-03-05T05:29:33.418Z,77.03
2019-03-05T05:30:13.996Z,77.12
2019-03-05T05:30:54.554Z,77.22
2019-03-05T05:31:35.117Z,77.03
2019-03-05T05:32:15.681Z,77.03
2019-03-05T05:32:56.232Z,77.22
2019-03-05T05:33:36.799Z,77.22
2019-03-05T05:34:17.354Z,77.31
2019-03-05T05:34:57.917Z,76.75
2019-03-05T05:35:38.481Z,77.22
2019-03-05T05:36:19.092Z,77.12
2019-03-05T05:36:59.710Z,77.12
2019-03-05T05:37:40.322Z,77.22
2019-03-05T05:38:20.911Z,77.12
2019-03-05T05:39:01.475Z,77.12
2019-03-05T05:39:42.034Z,77.31
2019-03-05T05:40:22.598Z,77.22
2019-03-05T05:41:03.146Z,77.12
2019-03-05T05:41:43.723Z,76.93
2019-03-05T05:42:24.310Z,77.22
2019-03-05T05:43:04.871Z,77.22
2019-03-05T05:43:46.322Z,77.12
2019-03-05T05:44:26.853Z,76.84
2019-03-05T05:45:07.458Z,77.22
2019-03-05T05:45:48.059Z,76.93
2019-03-05T05:46:28.799Z,77.12
2019-03-05T05:47:10.138Z,77.22
2019-03-05T05:47:51.242Z,77.12
2019-03-05T05:48:32.591Z,77.22
2019-03-05T05:49:13.360Z,77.31
2019-03-05T05:49:54.484Z,77.22
2019-03-05T05:50:35.179Z,77.22
2019-03-05T05:51:15.859Z,77.12
2019-03-05T05:51:56.538Z,77.12
2019-03-05T05:52:37.316Z,76.93
2019-03-05T05:53:18.086Z,77.12
2019-03-05T05:53:58.664Z,77.22
2019-03-05T05:54:39.319Z,77.12
2019-03-05T05:55:20.400Z,77.12
2019-03-05T05:56:01.049Z,77.12
2019-03-05T05:56:41.782Z,77.31
2019-03-05T05:57:22.346Z,77.03
2019-03-05T05:58:02.907Z,77.31
2019-03-05T05:58:43.929Z,77.12
2019-03-05T05:59:24.847Z,77.22
2019-03-05T06:00:05.562Z,77.22
2019-03-05T06:00:46.375Z,76.93
2019-03-05T06:01:26.934Z,77.6
2019-03-05T06:02:07.543Z,76.75
2019-03-05T06:02:48.119Z,76.65
2019-03-05T06:03:28.725Z,76.56
2019-03-05T06:04:09.291Z,76.75
2019-03-05T06:04:49.882Z,76.75
2019-03-05T06:05:30.517Z,76.65
2019-03-05T06:06:11.073Z,76.65
2019-03-05T06:06:51.807Z,76.65
2019-03-05T06:07:32.528Z,76.37
2019-03-05T06:08:13.149Z,76.65
2019-03-05T06:08:53.723Z,76.93
2019-03-05T06:09:34.410Z,76.84
2019-03-05T06:10:14.973Z,76.65
2019-03-05T06:10:55.525Z,76.65
2019-03-05T06:11:36.109Z,76.65
2019-03-05T06:12:16.703Z,76.75
2019-03-05T06:12:57.229Z,76.84
2019-03-05T06:13:37.825Z,76.46
2019-03-05T06:14:18.395Z,76.93
2019-03-05T06:14:58.975Z,76.75
2019-03-05T06:15:39.581Z,76.75
2019-03-05T06:16:20.208Z,76.46
2019-03-05T06:17:00.770Z,76.37
2019-03-05T06:17:41.334Z,76.27
2019-03-05T06:18:21.906Z,76.65
2019-03-05T06:19:02.505Z,76.65
2019-03-05T06:19:43.046Z,76.46
2019-03-05T06:20:23.608Z,76.08
2019-03-05T06:21:04.223Z,76.37
2019-03-05T06:21:44.789Z,76.46
2019-03-05T06:22:25.381Z,76.27
2019-03-05T06:23:05.957Z,76.27
2019-03-05T06:23:46.618Z,76.37
2019-03-05T06:24:27.220Z,76.27
2019-03-05T06:25:07.866Z,76.65
2019-03-05T06:25:48.475Z,75.99
2019-03-05T06:26:29.081Z,75.99
2019-03-05T06:27:09.750Z,76.46
2019-03-05T06:27:50.339Z,75.89
2019-03-05T06:28:30.881Z,76.37
2019-03-05T06:29:11.506Z,75.79
2019-03-05T06:29:52.070Z,75.79
2019-03-05T06:30:32.682Z,75.6
2019-03-05T06:31:13.265Z,75.79
2019-03-05T06:31:53.823Z,75.99
2019-03-05T06:32:34.394Z,75.89
2019-03-05T06:33:15.003Z,75.99
2019-03-05T06:33:55.566Z,75.99
2019-03-05T06:34:36.126Z,75.79
2019-03-05T06:35:16.706Z,75.7
2019-03-05T06:35:57.267Z,75.7
2019-03-05T06:36:37.867Z,75.79
2019-03-05T06:37:18.441Z,75.42
2019-03-05T06:37:59.044Z,75.6
2019-03-05T06:38:39.660Z,75.51
2019-03-05T06:39:20.233Z,75.7
2019-03-05T06:40:00.825Z,74.94
2019-03-05T06:40:41.443Z,75.13
2019-03-05T06:41:21.982Z,75.13
2019-03-05T06:42:02.580Z,74.66
2019-03-05T06:42:43.169Z,75.23
2019-03-05T06:43:23.785Z,75.32
2019-03-05T06:44:04.400Z,75.89
2019-03-05T06:44:44.965Z,75.32
2019-03-05T06:45:25.513Z,75.32
2019-03-05T06:46:06.125Z,75.89
2019-03-05T06:46:46.714Z,75.7
2019-03-05T06:47:27.282Z,75.7
2019-03-05T06:48:07.871Z,75.79
2019-03-05T06:48:48.434Z,75.42
2019-03-05T06:49:29.074Z,75.7
2019-03-05T06:50:09.582Z,75.79
2019-03-05T06:50:50.148Z,75.6
2019-03-05T06:51:30.726Z,75.42
2019-03-05T06:52:11.885Z,75.79
2019-03-05T06:52:51.980Z,75.6
2019-03-05T06:53:32.524Z,75.79
2019-03-05T06:54:13.108Z,75.79
2019-03-05T06:54:53.670Z,75.7
2019-03-05T06:55:34.264Z,75.7
2019-03-05T06:56:14.951Z,75.6
2019-03-05T06:56:55.509Z,75.79
2019-03-05T06:57:36.064Z,75.6
2019-03-05T06:58:16.689Z,74.75
2019-03-05T06:58:57.316Z,75.04
2019-03-05T06:59:37.885Z,74.66
2019-03-05T07:00:18.437Z,74.94
2019-03-05T07:00:59.019Z,75.04
2019-03-05T07:01:39.584Z,74.85
2019-03-05T07:02:20.189Z,74.47
2019-03-05T07:03:00.761Z,74.75
2019-03-05T07:03:41.369Z,74.56
2019-03-05T07:04:21.925Z,74.56
2019-03-05T07:05:02.965Z,74.94
2019-03-05T07:05:43.504Z,74.75
2019-03-05T07:06:24.145Z,74.56
2019-03-05T07:07:04.703Z,74.56
2019-03-05T07:07:45.264Z,74.66
2019-03-05T07:08:25.821Z,74.66
2019-03-05T07:09:06.419Z,74.66
2019-03-05T07:09:47.025Z,74.6
2019-03-05T07:10:27.596Z,74.41
2019-03-05T07:11:08.207Z,74.79
2019-03-05T07:11:48.758Z,74.69
2019-03-05T07:12:29.312Z,74.08
2019-03-05T07:13:09.929Z,74.41
2019-03-05T07:13:50.506Z,73.93
2019-03-05T07:14:31.098Z,73.65
2019-03-05T07:15:11.685Z,73.65
2019-03-05T07:15:52.247Z,74.12
2019-03-05T07:16:32.902Z,73.84
2019-03-05T07:17:13.474Z,73.84
2019-03-05T07:17:54.069Z,73.36
2019-03-05T07:18:34.603Z,73.27
2019-03-05T07:19:15.169Z,73.08
2019-03-05T07:19:58.082Z,73.18
2019-03-05T07:20:36.306Z,73.08
2019-03-05T07:21:16.908Z,72.79
2019-03-05T07:21:57.509Z,72.41
2019-03-05T07:22:38.109Z,72.7
2019-03-05T07:23:18.663Z,72.7
2019-03-05T07:23:59.271Z,72.41
2019-03-05T07:24:39.828Z,72.79
2019-03-05T07:25:20.420Z,72.6
2019-03-05T07:26:01.435Z,72.22
2019-03-05T07:26:42.008Z,72.7
2019-03-05T07:27:22.571Z,72.6
2019-03-05T07:28:03.140Z,72.03
2019-03-05T07:28:43.717Z,72.51
2019-03-05T07:29:24.295Z,72.03
2019-03-05T07:30:04.855Z,72.41
2019-03-05T07:30:45.402Z,72.13
2019-03-05T07:31:25.978Z,71.56
2019-03-05T07:32:06.543Z,71.37
2019-03-05T07:32:47.966Z,71.27
2019-03-05T07:33:27.762Z,70.99
2019-03-05T07:34:08.309Z,71.08
2019-03-05T07:34:48.893Z,71.08
2019-03-05T07:35:29.456Z,70.23
2019-03-05T07:36:10.038Z,70.42
2019-03-05T07:36:50.619Z,69.94
2019-03-05T07:37:31.193Z,70.61
2019-03-05T07:38:11.766Z,70.51
2019-03-05T07:38:52.346Z,70.07
2019-03-05T07:39:33.034Z,69.79
2019-03-05T07:40:13.705Z,69.21
2019-03-05T07:40:54.296Z,69.21
2019-03-05T07:41:35.128Z,68.93
2019-03-05T07:42:15.856Z,68.65
2019-03-05T07:42:56.422Z,68.74
2019-03-05T07:43:36.985Z,68.65
2019-03-05T07:44:17.584Z,68.46
2019-03-05T07:44:58.143Z,68.74
2019-03-05T07:45:38.715Z,68.84
2019-03-05T07:46:19.276Z,69.21
2019-03-05T07:46:59.963Z,69.31
2019-03-05T07:47:40.524Z,69.21
2019-03-05T07:48:21.116Z,69.21
2019-03-05T07:49:01.685Z,68.74
2019-03-05T07:49:43.986Z,67.41
2019-03-05T07:50:22.933Z,67.6
2019-03-05T07:51:03.569Z,67.22
2019-03-05T07:51:44.222Z,67.07
2019-03-05T07:52:24.759Z,66.87
2019-03-05T07:53:05.383Z,66.49
2019-03-05T07:53:45.882Z,66.17
2019-03-05T07:54:26.447Z,66.2
2019-03-05T07:55:13.410Z,66.2
2019-03-05T07:55:47.640Z,66.3
2019-03-05T07:56:28.209Z,66.78
2019-03-05T07:57:08.765Z,66.84
2019-03-05T07:57:49.359Z,66.55
2019-03-05T07:58:29.912Z,66.39
2019-03-05T07:59:10.484Z,66.87
2019-03-05T07:59:51.074Z,66.11
2019-03-05T08:00:31.639Z,66.2
2019-03-05T08:01:22.052Z,66.17
2019-03-05T08:01:56.511Z,66.17
2019-03-05T08:02:37.101Z,66.74
2019-03-05T08:03:17.853Z,67.22
2019-03-05T08:03:58.315Z,66.97
2019-03-05T08:04:38.873Z,67.22
2019-03-05T08:05:19.510Z,66.68
2019-03-05T08:06:00.095Z,67.07
2019-03-05T08:06:40.672Z,66.94
2019-03-05T08:07:21.243Z,66.74
2019-03-05T08:08:01.823Z,66.94
2019-03-05T08:08:42.402Z,67.03
2019-03-05T08:09:22.962Z,66.94
2019-03-05T08:10:03.553Z,66.84
2019-03-05T08:10:44.209Z,67.22
2019-03-05T08:11:24.862Z,67.32
2019-03-05T08:12:05.462Z,67.69
2019-03-05T08:12:46.116Z,67.5
2019-03-05T08:13:26.689Z,67.69
2019-03-05T08:14:07.337Z,67.69
2019-03-05T08:14:48.041Z,67.32
2019-03-05T08:15:28.631Z,67.69
2019-03-05T08:16:09.178Z,67.6
2019-03-05T08:16:49.740Z,67.13
2019-03-05T08:17:30.302Z,67.22
2019-03-05T08:18:10.848Z,67.41
2019-03-05T08:18:51.471Z,66.94
2019-03-05T08:19:32.048Z,66.55
2019-03-05T08:20:12.635Z,66.36
2019-03-05T08:20:53.251Z,66.27
2019-03-05T08:21:33.848Z,65.99
2019-03-05T08:22:14.480Z,66.74
2019-03-05T08:22:55.061Z,65.99
2019-03-05T08:23:35.676Z,66.36
2019-03-05T08:24:16.606Z,66.65
2019-03-05T08:24:57.356Z,66.55
2019-03-05T08:25:37.798Z,67.03
2019-03-05T08:26:18.368Z,67.41
2019-03-05T08:26:59.007Z,67.22
2019-03-05T08:27:39.584Z,66.84
2019-03-05T08:28:20.132Z,66.55
2019-03-05T08:29:02.792Z,66.84
2019-03-05T08:29:41.268Z,66.94
2019-03-05T08:30:21.889Z,67.13
2019-03-05T08:31:02.403Z,66.94
2019-03-05T08:31:42.946Z,67.22
2019-03-05T08:32:23.528Z,67.32
2019-03-05T08:33:04.129Z,67.32
2019-03-05T08:33:44.636Z,67.13
2019-03-05T08:34:25.219Z,67.22
2019-03-05T08:35:05.896Z,67.41
2019-03-05T08:35:46.477Z,67.6
2019-03-05T08:36:27.037Z,67.69
2019-03-05T08:37:07.589Z,67.5
2019-03-05T08:37:48.146Z,67.79
2019-03-05T08:38:28.723Z,67.88
2019-03-05T08:39:09.284Z,67.79
2019-03-05T08:39:49.859Z,67.32
2019-03-05T08:40:30.432Z,67.6
2019-03-05T08:41:11.014Z,67.79
2019-03-05T08:41:51.610Z,67.5
2019-03-05T08:42:32.176Z,67.79
2019-03-05T08:43:12.766Z,67.88
2019-03-05T08:43:54.378Z,68.46